createdAt,value
2018-07-12T00:00:26.444Z,13.80
2018-07-12T00:02:54.396Z,10.33
2018-07-12T00:05:22.579Z,15.10
2018-07-12T00:07:50.828Z,10.77
2018-07-12T00:10:18.816Z,12.63
2018-07-12T00:12:46.965Z,13.07
2018-07-12T00:15:15.247Z,12.90
2018-07-12T00:17:43.307Z,15.33
2018-07-12T00:20:11.496Z,13.03
2018-07-12T00:22:39.711Z,14.80
2018-07-12T00:25:07.689Z,15.00
2018-07-12T00:27:35.629Z,14.87
2018-07-12T00:30:03.668Z,17.20
2018-07-12T00:32:31.647Z,10.60
2018-07-12T00:34:59.583Z,12.73
2018-07-12T00:37:27.533Z,14.33
2018-07-12T00:39:55.664Z,14.47
2018-07-12T00:42:23.998Z,13.67
2018-07-12T00:44:51.915Z,17.63
2018-07-12T00:47:19.860Z,22.23
2018-07-12T00:49:47.950Z,15.23
2018-07-12T00:52:16.990Z,16.60
2018-07-12T00:54:45.141Z,17.13
2018-07-12T00:57:13.490Z,19.87
2018-07-12T00:59:41.873Z,18.53
2018-07-12T01:02:09.851Z,19.30
2018-07-12T01:04:37.812Z,14.30
2018-07-12T01:07:05.758Z,15.67
2018-07-12T01:09:33.698Z,16.93
2018-07-12T01:12:01.932Z,15.37
2018-07-12T01:14:29.993Z,15.60
2018-07-12T01:16:58.279Z,17.43
2018-07-12T01:19:26.152Z,19.10
2018-07-12T01:21:54.191Z,17.30
2018-07-12T01:24:22.256Z,17.20
2018-07-12T01:26:50.199Z,22.67
2018-07-12T01:29:18.152Z,17.80
2018-07-12T01:31:46.103Z,15.73
2018-07-12T01:34:14.319Z,19.33
2018-07-12T01:36:42.187Z,18.17
2018-07-12T01:39:10.168Z,15.37
2018-07-12T01:41:38.201Z,13.50
2018-07-12T01:44:06.155Z,14.53
2018-07-12T01:46:34.096Z,17.17
2018-07-12T01:49:02.056Z,22.30
2018-07-12T01:51:30.028Z,20.07
2018-07-12T01:53:57.973Z,15.63
2018-07-12T01:56:25.932Z,17.97
2018-07-12T01:58:53.894Z,16.47
2018-07-12T02:01:21.840Z,17.57
2018-07-12T02:03:49.770Z,14.23
2018-07-12T02:06:17.712Z,16.90
2018-07-12T02:08:45.709Z,17.03
2018-07-12T02:11:13.922Z,14.20
2018-07-12T02:13:41.861Z,15.40
2018-07-12T02:16:09.833Z,15.97
2018-07-12T02:18:37.799Z,12.90
2018-07-12T02:21:05.800Z,16.93
2018-07-12T02:23:33.733Z,15.80
2018-07-12T02:26:01.686Z,14.40
2018-07-12T02:28:30.495Z,17.63
2018-07-12T02:30:58.465Z,15.17
2018-07-12T02:33:26.408Z,14.13
2018-07-12T02:35:54.376Z,13.63
2018-07-12T02:38:22.333Z,14.43
2018-07-12T02:40:50.475Z,13.93
2018-07-12T02:43:18.428Z,17.90
2018-07-12T02:45:46.447Z,14.60
2018-07-12T02:48:14.382Z,18.03
2018-07-12T02:50:42.473Z,17.67
2018-07-12T02:53:10.417Z,17.73
2018-07-12T02:55:38.586Z,17.50
2018-07-12T02:58:06.525Z,16.00
2018-07-12T03:00:34.500Z,21.00
2018-07-12T03:03:02.459Z,22.17
2018-07-12T03:05:30.485Z,22.53
2018-07-12T03:07:58.457Z,21.80
2018-07-12T03:10:26.447Z,18.67
2018-07-12T03:12:54.404Z,22.60
2018-07-12T03:15:22.387Z,19.57
2018-07-12T03:17:50.423Z,26.83
2018-07-12T03:20:18.375Z,25.60
2018-07-12T03:22:46.607Z,24.00
2018-07-12T03:25:14.528Z,21.60
2018-07-12T03:27:42.470Z,28.17
2018-07-12T03:30:10.431Z,24.33
2018-07-12T03:32:38.377Z,28.83
2018-07-12T03:35:06.322Z,20.97
2018-07-12T03:37:34.282Z,22.87
2018-07-12T03:40:02.235Z,24.50
2018-07-12T03:42:30.254Z,30.83
2018-07-12T03:44:58.408Z,24.23
2018-07-12T03:47:26.840Z,23.80
2018-07-12T03:49:54.730Z,28.60
2018-07-12T03:52:22.692Z,24.27
2018-07-12T03:54:50.660Z,26.63
2018-07-12T03:57:18.616Z,28.43
2018-07-12T03:59:46.581Z,31.17
2018-07-12T04:02:14.546Z,28.80
2018-07-12T04:04:42.679Z,24.50
2018-07-12T04:07:10.612Z,24.70
2018-07-12T04:09:38.563Z,25.83
2018-07-12T04:12:06.533Z,33.10
2018-07-12T04:14:34.662Z,26.97
2018-07-12T04:17:02.634Z,26.60
2018-07-12T04:19:30.600Z,20.63
2018-07-12T04:21:58.979Z,28.10
2018-07-12T04:24:26.958Z,25.47
2018-07-12T04:26:54.892Z,22.33
2018-07-12T04:29:22.858Z,21.37
2018-07-12T04:31:50.812Z,28.10
2018-07-12T04:34:18.809Z,18.13
2018-07-12T04:36:46.820Z,28.33
2018-07-12T04:39:14.883Z,24.40
2018-07-12T04:41:43.616Z,20.73
2018-07-12T04:44:11.611Z,16.77
2018-07-12T04:46:39.575Z,20.60
2018-07-12T04:49:07.532Z,19.17
2018-07-12T04:51:35.488Z,21.63
2018-07-12T04:54:03.614Z,23.77
2018-07-12T04:56:31.577Z,20.77
2018-07-12T04:58:59.514Z,15.77
2018-07-12T05:01:27.500Z,17.03
2018-07-12T05:03:55.603Z,17.93
2018-07-12T05:06:23.559Z,19.97
2018-07-12T05:08:51.791Z,19.13
2018-07-12T05:11:19.652Z,21.77
2018-07-12T05:13:47.892Z,16.93
2018-07-12T05:16:16.799Z,17.53
2018-07-12T05:18:44.744Z,16.23
2018-07-12T05:21:13.148Z,17.33
2018-07-12T05:23:40.999Z,19.43
2018-07-12T05:26:09.001Z,17.53
2018-07-12T05:28:36.973Z,18.97
2018-07-12T05:31:05.108Z,16.27
2018-07-12T05:33:33.042Z,18.03
2018-07-12T05:36:37.816Z,19.23
2018-07-12T05:39:06.999Z,17.67
2018-07-12T05:41:36.176Z,19.17
2018-07-12T05:44:05.717Z,16.67
2018-07-12T05:46:34.894Z,20.60
2018-07-12T05:49:04.079Z,16.77
2018-07-12T05:51:33.307Z,16.10
2018-07-12T05:54:03.221Z,14.87
2018-07-12T05:56:32.360Z,16.70
2018-07-12T05:59:02.937Z,15.53
2018-07-12T06:01:43.300Z,14.50
2018-07-12T06:04:12.721Z,19.90
2018-07-12T06:06:42.416Z,14.93
2018-07-12T06:09:12.375Z,17.93
2018-07-12T06:11:41.636Z,14.13
2018-07-12T06:14:10.916Z,11.60
2018-07-12T06:16:40.143Z,17.97
2018-07-12T06:19:09.400Z,14.80
2018-07-12T06:21:38.716Z,14.67
2018-07-12T06:24:07.932Z,14.00
2018-07-12T06:26:37.094Z,14.40
2018-07-12T06:29:06.159Z,15.27
2018-07-12T06:31:35.532Z,12.47
2018-07-12T06:34:04.681Z,14.47
2018-07-12T06:36:33.964Z,10.60
2018-07-12T06:39:03.628Z,9.73
2018-07-12T06:41:32.827Z,13.23
2018-07-12T06:44:02.008Z,11.90
2018-07-12T06:46:31.224Z,14.20
2018-07-12T06:49:00.520Z,11.13
2018-07-12T06:51:29.699Z,9.80
2018-07-12T06:53:59.599Z,11.13
2018-07-12T06:56:28.856Z,12.30
2018-07-12T06:58:58.038Z,12.30
2018-07-12T07:01:27.248Z,11.93
2018-07-12T07:03:56.764Z,9.97
2018-07-12T07:06:26.902Z,11.47
2018-07-12T07:08:56.060Z,12.73
2018-07-12T07:11:25.294Z,9.77
2018-07-12T07:13:54.658Z,13.40
2018-07-12T07:16:23.868Z,13.53
2018-07-12T07:18:53.139Z,11.23
2018-07-12T07:21:22.240Z,13.50
2018-07-12T07:23:51.326Z,14.23
2018-07-12T07:26:20.231Z,13.13
2018-07-12T07:28:49.284Z,12.23
2018-07-12T07:31:18.460Z,11.40
2018-07-12T07:33:47.661Z,13.60
2018-07-12T07:36:16.856Z,14.47
2018-07-12T07:38:46.140Z,10.57
2018-07-12T07:41:15.703Z,11.37
2018-07-12T07:43:44.951Z,11.20
2018-07-12T07:46:13.842Z,14.77
2018-07-12T07:48:42.862Z,9.40
2018-07-12T07:51:12.023Z,11.47
2018-07-12T07:53:41.228Z,12.50
2018-07-12T07:56:10.430Z,14.83
2018-07-12T07:58:39.644Z,11.83
2018-07-12T08:01:08.850Z,11.53
2018-07-12T08:03:38.048Z,10.40
2018-07-12T08:06:07.230Z,12.13
2018-07-12T08:08:36.536Z,12.27
2018-07-12T08:11:05.700Z,11.03
2018-07-12T08:13:34.922Z,13.43
2018-07-12T08:16:04.197Z,13.30
2018-07-12T08:18:33.093Z,11.13
2018-07-12T08:21:02.731Z,7.53
2018-07-12T08:23:31.983Z,9.35
2018-07-12T08:26:01.100Z,12.33
2018-07-12T08:28:30.529Z,12.20
2018-07-12T08:31:00.200Z,11.30
2018-07-12T08:33:29.472Z,8.83
2018-07-12T08:35:58.580Z,11.30
2018-07-12T08:38:27.793Z,9.10
2018-07-12T08:40:56.953Z,10.57
2018-07-12T08:43:26.143Z,8.30
2018-07-12T08:45:55.330Z,12.70
2018-07-12T08:48:24.566Z,8.95
2018-07-12T08:50:53.954Z,8.53
2018-07-12T08:53:23.119Z,11.60
2018-07-12T08:55:52.324Z,10.13
2018-07-12T08:58:21.511Z,11.80
2018-07-12T09:00:50.640Z,13.40
2018-07-12T09:03:19.789Z,11.28
2018-07-12T09:05:49.001Z,9.75
2018-07-12T09:08:18.311Z,14.53
2018-07-12T09:10:47.528Z,8.98
2018-07-12T09:13:16.715Z,11.60
2018-07-12T09:15:46.154Z,9.68
2018-07-12T09:18:15.595Z,9.90
2018-07-12T09:20:44.712Z,11.95
2018-07-12T09:23:13.778Z,10.18
2018-07-12T09:25:42.997Z,7.75
2018-07-12T09:28:12.220Z,7.97
2018-07-12T09:30:41.430Z,10.53
2018-07-12T09:33:10.549Z,10.45
2018-07-12T09:35:39.918Z,11.40
2018-07-12T09:38:45.872Z,10.80
2018-07-12T09:41:15.181Z,9.83
2018-07-12T09:43:45.208Z,12.63
2018-07-12T09:46:15.138Z,12.88
2018-07-12T09:48:45.535Z,8.70
2018-07-12T09:51:15.347Z,8.05
2018-07-12T09:53:45.482Z,11.40
2018-07-12T09:56:14.917Z,10.65
2018-07-12T09:58:43.975Z,8.80
2018-07-12T10:01:18.600Z,9.80
2018-07-12T10:03:49.208Z,8.48
2018-07-12T10:06:23.881Z,8.98
2018-07-12T10:08:58.856Z,10.20
2018-07-12T10:11:33.628Z,8.30
2018-07-12T10:14:08.326Z,6.35
2018-07-12T10:16:42.801Z,8.65
2018-07-12T10:19:11.993Z,10.30
2018-07-12T10:21:41.268Z,9.40
2018-07-12T10:24:10.358Z,7.00
2018-07-12T10:26:39.519Z,8.05
2018-07-12T10:29:08.664Z,6.90
2018-07-12T10:31:37.855Z,7.47
2018-07-12T10:34:07.050Z,6.95
2018-07-12T10:36:36.260Z,6.97
2018-07-12T10:39:07.843Z,7.65
2018-07-12T10:41:37.109Z,8.28
2018-07-12T10:44:06.625Z,6.42
2018-07-12T10:46:35.833Z,6.30
2018-07-12T10:49:05.156Z,10.10
2018-07-12T10:51:34.269Z,8.78
2018-07-12T10:54:03.425Z,6.60
2018-07-12T10:56:32.737Z,9.33
2018-07-12T10:59:02.083Z,5.92
2018-07-12T11:01:31.238Z,6.97
2018-07-12T11:04:00.421Z,9.35
2018-07-12T11:06:29.642Z,6.75
2018-07-12T11:08:58.900Z,7.65
2018-07-12T11:11:28.099Z,7.45
2018-07-12T11:13:57.353Z,7.47
2018-07-12T11:16:26.519Z,7.92
2018-07-12T11:18:55.730Z,8.93
2018-07-12T11:21:24.988Z,7.08
2018-07-12T11:23:54.212Z,5.58
2018-07-12T11:26:23.419Z,5.65
2018-07-12T11:28:53.108Z,4.83
2018-07-12T11:31:22.216Z,5.78
2018-07-12T11:33:52.044Z,8.75
2018-07-12T11:36:21.180Z,6.92
2018-07-12T11:38:50.320Z,8.38
2018-07-12T11:41:19.492Z,8.75
2018-07-12T11:43:49.770Z,5.42
2018-07-12T11:46:18.992Z,6.95
2018-07-12T11:48:55.822Z,5.60
2018-07-12T11:51:25.146Z,5.75
2018-07-12T11:53:54.447Z,8.80
2018-07-12T11:56:23.627Z,6.97
2018-07-12T11:58:52.793Z,6.47
2018-07-12T12:01:22.023Z,5.70
2018-07-12T12:03:50.883Z,7.08
2018-07-12T12:06:20.034Z,6.55
2018-07-12T12:08:49.106Z,5.30
2018-07-12T12:11:18.325Z,8.98
2018-07-12T12:13:47.665Z,6.25
2018-07-12T12:16:16.935Z,7.65
2018-07-12T12:18:46.184Z,10.50
2018-07-12T12:21:15.454Z,7.47
2018-07-12T12:23:44.714Z,7.28
2018-07-12T12:26:13.945Z,8.33
2018-07-12T12:28:43.194Z,5.12
2018-07-12T12:31:12.380Z,5.75
2018-07-12T12:33:41.575Z,6.10
2018-07-12T12:36:10.776Z,6.47
2018-07-12T12:38:40.128Z,5.78
2018-07-12T12:41:09.312Z,5.70
2018-07-12T12:43:38.514Z,5.05
2018-07-12T12:46:07.675Z,5.10
2018-07-12T12:48:36.901Z,6.92
2018-07-12T12:51:06.067Z,7.72
2018-07-12T12:53:36.393Z,4.75
2018-07-12T12:56:05.746Z,8.10
2018-07-12T12:58:35.225Z,9.83
2018-07-12T13:01:04.431Z,6.00
2018-07-12T13:03:33.621Z,6.45
2018-07-12T13:06:03.013Z,7.40
2018-07-12T13:08:32.352Z,7.58
2018-07-12T13:11:01.870Z,5.20
2018-07-12T13:13:31.050Z,7.27
2018-07-12T13:16:00.208Z,6.47
2018-07-12T13:18:29.471Z,6.33
2018-07-12T13:20:59.355Z,7.03
2018-07-12T13:23:28.634Z,10.83
2018-07-12T13:25:58.001Z,7.50
2018-07-12T13:28:27.375Z,10.57
2018-07-12T13:30:56.501Z,5.63
2018-07-12T13:33:25.703Z,6.20
2018-07-12T13:35:55.081Z,6.20
2018-07-12T13:38:24.340Z,8.87
2018-07-12T13:40:53.863Z,7.67
2018-07-12T13:43:22.640Z,5.27
2018-07-12T13:45:51.948Z,6.17
2018-07-12T13:48:21.145Z,5.67
2018-07-12T13:50:50.335Z,6.90
2018-07-12T13:53:19.472Z,5.75
2018-07-12T13:55:48.776Z,8.53
2018-07-12T13:58:18.007Z,6.33
2018-07-12T14:00:47.153Z,5.40
2018-07-12T14:03:16.434Z,7.40
2018-07-12T14:05:45.643Z,6.57
2018-07-12T14:08:14.908Z,6.13
2018-07-12T14:10:44.017Z,5.60
2018-07-12T14:13:13.285Z,6.63
2018-07-12T14:15:42.527Z,10.00
2018-07-12T14:18:11.652Z,6.13
2018-07-12T14:20:41.011Z,6.73
2018-07-12T14:23:10.188Z,5.27
2018-07-12T14:25:39.680Z,3.77
2018-07-12T14:28:08.913Z,4.27
2018-07-12T14:30:38.157Z,4.77
2018-07-12T14:33:07.576Z,7.63
2018-07-12T14:35:37.839Z,8.40
2018-07-12T14:38:07.224Z,7.13
2018-07-12T14:40:37.325Z,11.17
2018-07-12T14:43:07.328Z,4.43
2018-07-12T14:45:36.453Z,7.47
2018-07-12T14:48:05.753Z,8.23
2018-07-12T14:50:35.019Z,6.37
2018-07-12T14:53:04.199Z,5.47
2018-07-12T14:55:33.404Z,6.43
2018-07-12T14:58:02.627Z,10.60
2018-07-12T15:00:31.751Z,6.00
2018-07-12T15:03:00.984Z,7.43
2018-07-12T15:05:30.211Z,6.73
2018-07-12T15:07:59.521Z,9.43
2018-07-12T15:10:28.707Z,4.33
2018-07-12T15:12:57.886Z,6.80
2018-07-12T15:15:27.166Z,7.13
2018-07-12T15:17:56.392Z,5.30
2018-07-12T15:20:25.572Z,6.03
2018-07-12T15:22:54.743Z,8.80
2018-07-12T15:25:23.906Z,6.67
2018-07-12T15:27:53.075Z,6.20
2018-07-12T15:30:22.143Z,6.67
2018-07-12T15:32:51.497Z,9.43
2018-07-12T15:35:20.782Z,13.30
2018-07-12T15:37:49.889Z,9.93
2018-07-12T15:40:19.116Z,8.00
2018-07-12T15:42:48.254Z,9.80
2018-07-12T15:45:17.476Z,9.33
2018-07-12T15:47:46.298Z,8.03
2018-07-12T15:50:20.331Z,9.53
2018-07-12T15:52:49.699Z,5.23
2018-07-12T15:55:19.213Z,9.13
2018-07-12T15:57:48.921Z,4.90
2018-07-12T16:00:18.525Z,8.03
2018-07-12T16:02:47.678Z,9.83
2018-07-12T16:05:16.975Z,14.20
2018-07-12T16:07:46.513Z,8.80
2018-07-12T16:10:15.692Z,10.20
2018-07-12T16:12:44.855Z,10.57
2018-07-12T16:15:14.007Z,8.83
2018-07-12T16:17:42.888Z,11.10
2018-07-12T16:20:12.462Z,7.13
2018-07-12T16:22:41.652Z,12.37
2018-07-12T16:25:10.920Z,10.73
2018-07-12T16:27:40.135Z,10.47
2018-07-12T16:30:09.415Z,8.80
2018-07-12T16:32:38.603Z,9.27
2018-07-12T16:35:07.833Z,11.77
2018-07-12T16:37:37.102Z,10.00
2018-07-12T16:40:06.317Z,10.90
2018-07-12T16:42:35.531Z,13.40
2018-07-12T16:45:04.889Z,11.67
2018-07-12T16:47:34.756Z,10.80
2018-07-12T16:50:04.311Z,7.20
2018-07-12T16:52:33.453Z,9.43
2018-07-12T16:55:02.622Z,11.00
2018-07-12T16:57:31.498Z,13.10
2018-07-12T17:00:00.707Z,5.53
2018-07-12T17:02:30.008Z,15.30
2018-07-12T17:04:59.223Z,11.30
2018-07-12T17:07:28.707Z,7.87
2018-07-12T17:09:57.929Z,9.93
2018-07-12T17:12:27.156Z,9.43
2018-07-12T17:14:56.283Z,8.90
2018-07-12T17:17:25.589Z,10.87
2018-07-12T17:19:54.756Z,11.20
2018-07-12T17:22:23.918Z,10.00
2018-07-12T17:24:53.052Z,12.17
2018-07-12T17:27:22.179Z,7.67
2018-07-12T17:29:51.337Z,9.77
2018-07-12T17:32:20.617Z,10.27
2018-07-12T17:34:49.742Z,14.63
2018-07-12T17:37:18.956Z,18.17
2018-07-12T17:39:48.196Z,17.33
2018-07-12T17:42:17.399Z,13.27
2018-07-12T17:44:46.528Z,10.07
2018-07-12T17:47:15.658Z,9.33
2018-07-12T17:49:44.768Z,12.23
2018-07-12T17:52:14.017Z,19.27
2018-07-12T17:54:43.171Z,15.63
2018-07-12T17:57:12.336Z,14.57
2018-07-12T17:59:41.469Z,10.77
2018-07-12T18:02:10.572Z,14.53
2018-07-12T18:04:39.747Z,19.57
2018-07-12T18:07:08.883Z,15.10
2018-07-12T18:09:38.026Z,12.87
2018-07-12T18:12:07.180Z,10.57
2018-07-12T18:14:37.202Z,10.73
2018-07-12T18:17:06.340Z,17.73
2018-07-12T18:19:35.522Z,11.97
2018-07-12T18:22:04.733Z,13.20
2018-07-12T18:24:33.856Z,12.17
2018-07-12T18:27:03.048Z,11.30
2018-07-12T18:29:32.225Z,8.60
2018-07-12T18:32:01.317Z,11.00
2018-07-12T18:34:30.439Z,13.67
2018-07-12T18:36:59.637Z,13.43
2018-07-12T18:39:28.756Z,14.40
2018-07-12T18:41:57.540Z,13.47
2018-07-12T18:44:26.680Z,13.07
2018-07-12T18:46:55.907Z,15.40
2018-07-12T18:49:25.107Z,15.13
2018-07-12T18:51:54.394Z,12.57
2018-07-12T18:54:23.752Z,15.30
2018-07-12T18:56:52.945Z,13.03
2018-07-12T18:59:22.128Z,14.80
2018-07-12T19:01:51.341Z,11.47
2018-07-12T19:04:20.463Z,12.30
2018-07-12T19:06:49.910Z,15.73
2018-07-12T19:09:19.715Z,14.00
2018-07-12T19:11:48.931Z,12.43
2018-07-12T19:14:18.145Z,15.73
2018-07-12T19:16:47.331Z,21.03
2018-07-12T19:19:16.472Z,14.17
2018-07-12T19:21:45.685Z,12.13
2018-07-12T19:24:14.938Z,15.47
2018-07-12T19:26:44.089Z,10.67
2018-07-12T19:29:13.251Z,12.83
2018-07-12T19:31:42.500Z,16.03
2018-07-12T19:34:11.635Z,18.20
2018-07-12T19:36:40.834Z,17.20
2018-07-12T19:39:10.124Z,11.60
2018-07-12T19:41:39.311Z,12.00
2018-07-12T19:44:08.576Z,12.90
2018-07-12T19:46:37.681Z,15.07
2018-07-12T19:49:07.258Z,17.37
2018-07-12T19:51:36.500Z,18.83
2018-07-12T19:54:05.716Z,16.23
2018-07-12T19:56:34.928Z,18.93
2018-07-12T19:59:04.356Z,13.03
2018-07-12T20:01:33.503Z,19.57
2018-07-12T20:04:02.654Z,16.10
2018-07-12T20:06:31.800Z,21.03
2018-07-12T20:09:00.919Z,19.47
2018-07-12T20:11:30.259Z,15.13
2018-07-12T20:13:59.570Z,22.27
2018-07-12T20:16:28.996Z,20.87
2018-07-12T20:18:58.092Z,19.87
2018-07-12T20:21:27.315Z,18.60
2018-07-12T20:23:56.458Z,19.97
2018-07-12T20:26:25.768Z,22.93
2018-07-12T20:28:55.057Z,19.03
2018-07-12T20:31:24.377Z,20.27
2018-07-12T20:33:53.614Z,15.40
2018-07-12T20:36:23.070Z,16.63
2018-07-12T20:38:52.580Z,19.10
2018-07-12T20:41:21.724Z,16.10
2018-07-12T20:43:51.101Z,20.40
2018-07-12T20:46:20.967Z,17.57
2018-07-12T20:48:50.089Z,15.17
2018-07-12T20:51:19.812Z,15.63
2018-07-12T20:53:48.975Z,15.90
2018-07-12T20:56:18.185Z,17.23
2018-07-12T20:58:47.288Z,16.57
2018-07-12T21:01:16.587Z,14.17
2018-07-12T21:03:45.770Z,18.90
2018-07-12T21:06:14.888Z,17.80
2018-07-12T21:08:44.223Z,15.57
2018-07-12T21:11:13.763Z,18.30
2018-07-12T21:13:43.088Z,18.57
2018-07-12T21:16:12.273Z,18.27
2018-07-12T21:18:41.570Z,24.57
2018-07-12T21:21:10.869Z,18.13
2018-07-12T21:23:39.987Z,17.83
2018-07-12T21:26:09.156Z,16.87
2018-07-12T21:28:38.331Z,16.27
2018-07-12T21:31:07.632Z,16.80
2018-07-12T21:33:36.876Z,21.83
2018-07-12T21:36:06.368Z,12.87
2018-07-12T21:38:35.713Z,15.23
2018-07-12T21:41:04.894Z,17.23
2018-07-12T21:43:34.467Z,16.47
2018-07-12T21:46:03.978Z,15.00
2018-07-12T21:48:33.184Z,16.03
2018-07-12T21:51:02.496Z,17.10
2018-07-12T21:53:31.600Z,14.83
2018-07-12T21:56:00.744Z,16.80
2018-07-12T21:58:30.040Z,14.40
2018-07-12T22:00:59.181Z,15.77
2018-07-12T22:03:28.278Z,17.13
2018-07-12T22:05:57.227Z,17.50
2018-07-12T22:08:28.343Z,13.87
2018-07-12T22:11:02.761Z,19.13
2018-07-12T22:13:33.073Z,20.07
2018-07-12T22:16:02.255Z,20.00
2018-07-12T22:18:31.604Z,14.57
2018-07-12T22:21:00.857Z,15.90
2018-07-12T22:23:30.041Z,14.60
2018-07-12T22:25:59.255Z,13.60
2018-07-12T22:28:28.641Z,12.87
2018-07-12T22:30:57.945Z,13.63
2018-07-12T22:33:27.251Z,13.43
2018-07-12T22:35:56.366Z,13.10
2018-07-12T22:38:25.651Z,16.97
2018-07-12T22:40:54.955Z,13.47
2018-07-12T22:43:24.165Z,12.23
2018-07-12T22:45:53.445Z,16.97
2018-07-12T22:48:22.476Z,13.50
2018-07-12T22:50:52.269Z,19.20
2018-07-12T22:53:21.360Z,13.47
2018-07-12T22:55:50.552Z,11.20
2018-07-12T22:58:19.841Z,14.33
2018-07-12T23:00:49.051Z,15.00
2018-07-12T23:03:18.217Z,12.10
2018-07-12T23:05:48.572Z,11.43
2018-07-12T23:08:17.706Z,15.50
2018-07-12T23:10:46.816Z,14.50
2018-07-12T23:13:16.107Z,16.77
2018-07-12T23:15:45.382Z,19.27
2018-07-12T23:18:14.465Z,17.00
2018-07-12T23:20:43.776Z,15.20
2018-07-12T23:23:12.940Z,14.13
2018-07-12T23:25:42.211Z,10.87
2018-07-12T23:28:12.127Z,11.70
2018-07-12T23:30:41.279Z,11.77
2018-07-12T23:33:10.064Z,10.10
2018-07-12T23:35:39.204Z,12.33
2018-07-12T23:38:08.282Z,16.67
2018-07-12T23:40:37.426Z,15.40
2018-07-12T23:43:06.652Z,13.93
2018-07-12T23:45:35.845Z,10.17
2018-07-12T23:48:05.364Z,14.70
2018-07-12T23:50:34.577Z,12.00
2018-07-12T23:53:03.757Z,16.00
2018-07-12T23:55:32.940Z,12.20
2018-07-12T23:58:02.157Z,13.27
